Terminal Aerodrome Forecast
Issued by NWS

Home | Current Version | Previous Version | Text Only | Print | Product List | Glossary On
Versions: 1 2 3 4 5 6 7 8 9 10 11 12 13 14 15 16 17 18 19 20 21 22 23 24
655
FTUS46 KLOX 262053 AAA
TAFLAX
TAF AMD
KLAX 262053Z 2621/2724 29010KT P6SM FEW100 FEW160
     FM270300 26007KT P6SM SKC
     FM270900 VRB03KT P6SM SKC
     FM272000 26010KT P6SM SKC=

USA.gov is the U.S. government's official web portal to all federal, state and local government web resources and services.